Breckenridge, CO

5:59 AM MDT on August 29, 2014 (GMT -0600)
Copper Mountain | Change Station
CLOSE
Current Station
Airport
Location: Copper Mountain,
Elevation: 12073 ft
Nearby Weather Stations

Elev 12073 ft 39.48 °N, 106.15 °W | Updated 3 minutes ago

Overcast
Overcast
41 °F
Feels Like 39 °F
N
4
Wind Variable Wind from WSW

Today
High -- | Low -- °F
--% Chance of Precip.
Yesterday
High -- | Low -- °F
Precip. -- in
6:30 AM 7:40 PM
Waxing Crescent, 14% visible
Pressure 30.55 in
Visibility 0.8 miles
Clouds Overcast 300 ft
Windchill 39 °F
Dew Point 37 °F
Humidity 87%
Rainfall 0.00 in
Snow Depth 0 in , 0 in , 0 in
UV 0 out of 12
Pollen 10.40 out of 12
Air Quality Not available.
Flu Activity Not available.
METAR KCCU 291156Z AUTO 24003KT 3/4SM BR OVC003 05/03 A3055 RMK AO2 VIS 1/4V3

More Conditions Fewer Conditions

Pressure 30.55 in
Visibility 0.8 miles
Clouds Overcast 300 ft
Windchill 39 °F
Dew Point 37 °F
Humidity 87%
Rainfall 0.00 in
Snow Depth 0 in , 0 in , 0 in
UV 0 out of 12
Pollen 10.40 out of 12
Air Quality Not available.
Flu Activity Not available.
METAR KCCU 291156Z AUTO 24003KT 3/4SM BR OVC003 05/03 A3055 RMK AO2 VIS 1/4V3

More Conditions Fewer Conditions

10-Day Weather Forecast

Almanac

Astronomy

Aug. 29, 2014 Rise Set
Actual Time 6:30 AM MDT 7:40 PM MDT
Civil Twilight 6:02 AM MDT 8:07 PM MDT
Nautical Twilight 5:29 AM MDT 8:40 PM MDT
Astronomical Twilight 4:54 AM MDT 9:15 PM MDT
Moon 10:21 AM MDT 9:40 PM MDT
Length of Visible Light 14h 05m
Length of Day
13h 09m
Tomorrow will be 2m 27s shorter.
Waxing Crescent, 14% of the Moon is Illuminated
Today
Waxing Crescent
Sep 2
First Quarter
Sep 8
Full
Sep 15
Last Quarter
Sep 24
New

Today's Extremes

State Highs State Lows

Community

WunderPhotos

Upload Photos

1,748,216 photos uploaded!

Nearby

Snow Depth

Station Depth Elevation
Copper Mountain 0 in 10500 ft
Fremont Pass 0 in 11400 ft
Hoosier Pass 0 in 11400 ft
Buckskin Joe 0 in 11150 ft
Michigan Creek 0 in 10600 ft

Earthquake Activity

City Distance Mag. Time & Date
No recent earthquake activity has been reported nearby.
Minimum magnitude displayed is 2.5.

Coastal Water Temperatures

Place Temperature
No Stations Reporting

Nearby Weather Stations